sensor_id;sensor_type;location;lat;lon;timestamp;pressure;altitude;pressure_sealevel;temperature;humidity
34034;BME280;63481;52.588;22.472;2023-08-31T00:04:12;99209.48;;;17.07;100.00
34034;BME280;63481;52.588;22.472;2023-08-31T00:09:16;99210.69;;;17.00;100.00
34034;BME280;63481;52.588;22.472;2023-08-31T00:14:18;99206.01;;;17.00;100.00
34034;BME280;63481;52.588;22.472;2023-08-31T00:19:21;99205.95;;;17.00;100.00
34034;BME280;63481;52.588;22.472;2023-08-31T00:24:23;99209.61;;;16.96;100.00
34034;BME280;63481;52.588;22.472;2023-08-31T00:29:30;99211.36;;;16.92;100.00
34034;BME280;63481;52.588;22.472;2023-08-31T00:34:32;99215.20;;;16.98;100.00
34034;BME280;63481;52.588;22.472;2023-08-31T00:39:35;99217.90;;;16.99;100.00
34034;BME280;63481;52.588;22.472;2023-08-31T00:44:37;99215.39;;;16.94;100.00
34034;BME280;63481;52.588;22.472;2023-08-31T00:49:40;99220.52;;;16.91;100.00
34034;BME280;63481;52.588;22.472;2023-08-31T00:54:43;99221.27;;;16.83;100.00
34034;BME280;63481;52.588;22.472;2023-08-31T00:59:45;99222.63;;;16.84;100.00
34034;BME280;63481;52.588;22.472;2023-08-31T01:04:56;99220.67;;;16.85;100.00
34034;BME280;63481;52.588;22.472;2023-08-31T01:15:17;99220.89;;;16.90;100.00
34034;BME280;63481;52.588;22.472;2023-08-31T01:20:27;99216.55;;;16.77;100.00
34034;BME280;63481;52.588;22.472;2023-08-31T01:25:32;99218.00;;;16.79;100.00
34034;BME280;63481;52.588;22.472;2023-08-31T01:30:35;99218.42;;;16.79;100.00
34034;BME280;63481;52.588;22.472;2023-08-31T01:35:43;99220.32;;;16.72;100.00
34034;BME280;63481;52.588;22.472;2023-08-31T01:40:54;99222.90;;;16.71;100.00
34034;BME280;63481;52.588;22.472;2023-08-31T01:46:00;99219.58;;;16.72;100.00
34034;BME280;63481;52.588;22.472;2023-08-31T01:51:02;99218.33;;;16.68;100.00
34034;BME280;63481;52.588;22.472;2023-08-31T01:56:05;99216.27;;;16.68;100.00
34034;BME280;63481;52.588;22.472;2023-08-31T02:15:26;99202.83;;;16.68;100.00
34034;BME280;63481;52.588;22.472;2023-08-31T02:20:28;99202.13;;;16.70;100.00
34034;BME280;63481;52.588;22.472;2023-08-31T02:25:30;99199.98;;;16.63;100.00
34034;BME280;63481;52.588;22.472;2023-08-31T02:30:32;99209.95;;;16.56;100.00
34034;BME280;63481;52.588;22.472;2023-08-31T02:35:34;99210.73;;;16.56;100.00
34034;BME280;63481;52.588;22.472;2023-08-31T02:40:36;99218.00;;;16.62;100.00
34034;BME280;63481;52.588;22.472;2023-08-31T02:45:38;99224.83;;;16.50;100.00
34034;BME280;63481;52.588;22.472;2023-08-31T02:50:40;99230.16;;;16.42;100.00
34034;BME280;63481;52.588;22.472;2023-08-31T02:55:42;99236.84;;;16.49;100.00
34034;BME280;63481;52.588;22.472;2023-08-31T03:00:45;99236.83;;;16.39;100.00
34034;BME280;63481;52.588;22.472;2023-08-31T03:05:54;99232.80;;;16.38;100.00
34034;BME280;63481;52.588;22.472;2023-08-31T03:10:57;99230.27;;;16.34;100.00
34034;BME280;63481;52.588;22.472;2023-08-31T03:16:01;99236.33;;;16.23;100.00
34034;BME280;63481;52.588;22.472;2023-08-31T03:21:04;99234.18;;;16.26;100.00
34034;BME280;63481;52.588;22.472;2023-08-31T03:26:07;99240.09;;;16.22;100.00
34034;BME280;63481;52.588;22.472;2023-08-31T03:31:10;99249.09;;;16.21;100.00
34034;BME280;63481;52.588;22.472;2023-08-31T03:36:12;99254.84;;;16.21;100.00
34034;BME280;63481;52.588;22.472;2023-08-31T03:41:15;99254.04;;;16.23;100.00
34034;BME280;63481;52.588;22.472;2023-08-31T03:46:17;99252.41;;;16.20;100.00
34034;BME280;63481;52.588;22.472;2023-08-31T03:51:21;99248.34;;;16.25;100.00
34034;BME280;63481;52.588;22.472;2023-08-31T03:56:23;99251.77;;;16.17;100.00
34034;BME280;63481;52.588;22.472;2023-08-31T04:01:25;99257.64;;;16.21;100.00
34034;BME280;63481;52.588;22.472;2023-08-31T04:06:28;99260.92;;;16.27;100.00
34034;BME280;63481;52.588;22.472;2023-08-31T04:11:31;99265.13;;;16.27;100.00
34034;BME280;63481;52.588;22.472;2023-08-31T04:16:33;99270.35;;;16.24;100.00
34034;BME280;63481;52.588;22.472;2023-08-31T04:21:35;99267.83;;;16.35;100.00
34034;BME280;63481;52.588;22.472;2023-08-31T04:26:38;99269.92;;;16.29;100.00
34034;BME280;63481;52.588;22.472;2023-08-31T04:31:40;99268.61;;;16.21;100.00
34034;BME280;63481;52.588;22.472;2023-08-31T04:36:43;99270.34;;;16.22;100.00
34034;BME280;63481;52.588;22.472;2023-08-31T04:41:45;99266.85;;;16.27;100.00
34034;BME280;63481;52.588;22.472;2023-08-31T04:46:48;99269.08;;;16.34;100.00
34034;BME280;63481;52.588;22.472;2023-08-31T04:51:50;99274.13;;;16.41;100.00
34034;BME280;63481;52.588;22.472;2023-08-31T04:56:53;99277.37;;;16.49;100.00
34034;BME280;63481;52.588;22.472;2023-08-31T05:01:55;99284.11;;;16.52;100.00
34034;BME280;63481;52.588;22.472;2023-08-31T05:06:57;99284.73;;;16.58;100.00
34034;BME280;63481;52.588;22.472;2023-08-31T05:12:03;99291.16;;;16.56;100.00
34034;BME280;63481;52.588;22.472;2023-08-31T05:17:06;99295.54;;;16.61;100.00
34034;BME280;63481;52.588;22.472;2023-08-31T05:22:09;99293.99;;;16.60;100.00
34034;BME280;63481;52.588;22.472;2023-08-31T05:27:11;99299.95;;;16.55;100.00
34034;BME280;63481;52.588;22.472;2023-08-31T05:32:13;99303.08;;;16.57;100.00
34034;BME280;63481;52.588;22.472;2023-08-31T05:37:15;99308.58;;;16.63;99.95
34034;BME280;63481;52.588;22.472;2023-08-31T05:42:18;99310.73;;;16.64;99.90
34034;BME280;63481;52.588;22.472;2023-08-31T05:47:20;99310.52;;;16.62;99.49
34034;BME280;63481;52.588;22.472;2023-08-31T05:52:22;99314.73;;;16.51;99.08
34034;BME280;63481;52.588;22.472;2023-08-31T05:57:25;99315.36;;;16.53;99.73
34034;BME280;63481;52.588;22.472;2023-08-31T06:02:29;99316.50;;;16.48;99.89
34034;BME280;63481;52.588;22.472;2023-08-31T06:07:32;99318.15;;;16.54;100.00
34034;BME280;63481;52.588;22.472;2023-08-31T06:12:34;99322.52;;;16.62;99.93
34034;BME280;63481;52.588;22.472;2023-08-31T06:17:36;99325.16;;;16.62;99.92
34034;BME280;63481;52.588;22.472;2023-08-31T06:22:38;99331.80;;;16.69;99.62
34034;BME280;63481;52.588;22.472;2023-08-31T06:27:42;99332.13;;;16.78;98.60
34034;BME280;63481;52.588;22.472;2023-08-31T06:32:46;99337.84;;;16.82;98.26
34034;BME280;63481;52.588;22.472;2023-08-31T06:37:49;99340.63;;;16.90;98.46
34034;BME280;63481;52.588;22.472;2023-08-31T06:42:52;99344.79;;;16.79;98.06
34034;BME280;63481;52.588;22.472;2023-08-31T06:47:55;99346.33;;;16.70;99.07
34034;BME280;63481;52.588;22.472;2023-08-31T06:52:57;99349.40;;;16.66;99.26
34034;BME280;63481;52.588;22.472;2023-08-31T06:58:01;99350.53;;;16.51;99.61
34034;BME280;63481;52.588;22.472;2023-08-31T07:03:04;99357.91;;;16.47;99.96
34034;BME280;63481;52.588;22.472;2023-08-31T07:08:10;99365.01;;;16.60;99.76
34034;BME280;63481;52.588;22.472;2023-08-31T07:13:12;99371.39;;;16.71;99.33
34034;BME280;63481;52.588;22.472;2023-08-31T07:18:15;99373.88;;;16.90;98.70
34034;BME280;63481;52.588;22.472;2023-08-31T07:23:17;99381.09;;;16.99;97.78
34034;BME280;63481;52.588;22.472;2023-08-31T07:28:20;99386.85;;;17.16;96.89
34034;BME280;63481;52.588;22.472;2023-08-31T07:33:22;99392.09;;;17.23;96.18
34034;BME280;63481;52.588;22.472;2023-08-31T07:38:25;99400.55;;;17.15;95.50
34034;BME280;63481;52.588;22.472;2023-08-31T07:43:28;99402.33;;;17.11;96.07
34034;BME280;63481;52.588;22.472;2023-08-31T07:48:31;99407.67;;;17.16;96.02
34034;BME280;63481;52.588;22.472;2023-08-31T07:53:34;99414.23;;;17.27;94.59
34034;BME280;63481;52.588;22.472;2023-08-31T07:58:36;99419.85;;;17.23;94.14
34034;BME280;63481;52.588;22.472;2023-08-31T08:03:39;99424.59;;;17.25;93.37
34034;BME280;63481;52.588;22.472;2023-08-31T08:08:41;99425.83;;;17.21;92.77
34034;BME280;63481;52.588;22.472;2023-08-31T08:13:43;99418.92;;;17.34;92.65
34034;BME280;63481;52.588;22.472;2023-08-31T08:18:45;99421.95;;;17.34;91.74
34034;BME280;63481;52.588;22.472;2023-08-31T08:23:48;99424.59;;;17.14;94.02
34034;BME280;63481;52.588;22.472;2023-08-31T08:28:52;99425.70;;;16.91;96.42
34034;BME280;63481;52.588;22.472;2023-08-31T08:33:55;99432.87;;;16.98;97.06
34034;BME280;63481;52.588;22.472;2023-08-31T08:38:57;99434.33;;;17.08;95.73
34034;BME280;63481;52.588;22.472;2023-08-31T08:44:02;99434.39;;;17.06;94.71
34034;BME280;63481;52.588;22.472;2023-08-31T08:49:05;99434.90;;;16.88;96.31
34034;BME280;63481;52.588;22.472;2023-08-31T08:54:09;99436.69;;;16.90;97.16
34034;BME280;63481;52.588;22.472;2023-08-31T08:59:11;99438.20;;;16.93;96.28
34034;BME280;63481;52.588;22.472;2023-08-31T09:04:15;99437.48;;;17.13;95.45
34034;BME280;63481;52.588;22.472;2023-08-31T09:09:18;99437.41;;;17.54;94.45
34034;BME280;63481;52.588;22.472;2023-08-31T09:14:21;99439.23;;;18.12;90.63
34034;BME280;63481;52.588;22.472;2023-08-31T09:19:25;99441.46;;;18.83;87.77
34034;BME280;63481;52.588;22.472;2023-08-31T09:24:40;99454.82;;;19.02;83.76
34034;BME280;63481;52.588;22.472;2023-08-31T09:29:45;99455.52;;;18.40;86.10
34034;BME280;63481;52.588;22.472;2023-08-31T09:34:48;99464.51;;;18.14;87.54
34034;BME280;63481;52.588;22.472;2023-08-31T09:39:50;99467.31;;;18.16;88.10
34034;BME280;63481;52.588;22.472;2023-08-31T09:44:54;99473.81;;;18.08;87.54
34034;BME280;63481;52.588;22.472;2023-08-31T09:49:57;99478.77;;;17.79;87.91
34034;BME280;63481;52.588;22.472;2023-08-31T09:55:01;99482.55;;;17.85;87.75
34034;BME280;63481;52.588;22.472;2023-08-31T10:00:06;99480.43;;;17.90;88.04
34034;BME280;63481;52.588;22.472;2023-08-31T10:05:10;99481.10;;;18.03;87.62
34034;BME280;63481;52.588;22.472;2023-08-31T10:10:14;99481.30;;;18.65;86.10
34034;BME280;63481;52.588;22.472;2023-08-31T10:15:18;99484.27;;;18.88;84.11
34034;BME280;63481;52.588;22.472;2023-08-31T10:20:22;99489.05;;;18.55;85.24
34034;BME280;63481;52.588;22.472;2023-08-31T10:25:25;99496.27;;;18.07;86.57
34034;BME280;63481;52.588;22.472;2023-08-31T10:30:30;99494.27;;;18.28;85.14
34034;BME280;63481;52.588;22.472;2023-08-31T10:41:17;99492.75;;;19.32;81.59
34034;BME280;63481;52.588;22.472;2023-08-31T10:46:27;99493.77;;;19.32;79.85
34034;BME280;63481;52.588;22.472;2023-08-31T10:51:31;99501.27;;;19.63;79.80
34034;BME280;63481;52.588;22.472;2023-08-31T10:57:26;99504.90;;;19.87;77.05
34034;BME280;63481;52.588;22.472;2023-08-31T11:02:06;99512.16;;;19.68;76.24
34034;BME280;63481;52.588;22.472;2023-08-31T11:07:12;99511.16;;;19.83;76.12
34034;BME280;63481;52.588;22.472;2023-08-31T11:12:15;99510.41;;;20.22;73.14
34034;BME280;63481;52.588;22.472;2023-08-31T11:17:18;99517.23;;;20.22;72.60
34034;BME280;63481;52.588;22.472;2023-08-31T11:22:20;99517.36;;;20.60;72.88
34034;BME280;63481;52.588;22.472;2023-08-31T11:27:23;99516.60;;;20.73;71.77
34034;BME280;63481;52.588;22.472;2023-08-31T11:32:25;99524.05;;;20.59;72.00
34034;BME280;63481;52.588;22.472;2023-08-31T11:37:28;99524.91;;;20.64;69.66
34034;BME280;63481;52.588;22.472;2023-08-31T11:42:31;99524.67;;;21.16;67.85
34034;BME280;63481;52.588;22.472;2023-08-31T11:47:34;99527.36;;;21.17;66.29
34034;BME280;63481;52.588;22.472;2023-08-31T11:52:37;99534.19;;;20.79;67.12
34034;BME280;63481;52.588;22.472;2023-08-31T11:57:40;99528.67;;;21.12;67.02
34034;BME280;63481;52.588;22.472;2023-08-31T12:02:42;99530.92;;;21.26;63.03
34034;BME280;63481;52.588;22.472;2023-08-31T12:07:44;99534.81;;;21.28;63.69
34034;BME280;63481;52.588;22.472;2023-08-31T12:12:47;99530.29;;;21.25;62.75
34034;BME280;63481;52.588;22.472;2023-08-31T12:17:50;99533.18;;;21.16;63.54
34034;BME280;63481;52.588;22.472;2023-08-31T12:22:56;99537.86;;;21.41;62.76
34034;BME280;63481;52.588;22.472;2023-08-31T12:27:58;99535.64;;;21.26;64.06
34034;BME280;63481;52.588;22.472;2023-08-31T12:33:01;99537.30;;;21.53;62.93
34034;BME280;63481;52.588;22.472;2023-08-31T12:38:04;99528.40;;;21.57;61.15
34034;BME280;63481;52.588;22.472;2023-08-31T12:43:07;99530.88;;;21.78;60.43
34034;BME280;63481;52.588;22.472;2023-08-31T12:48:10;99526.63;;;22.17;58.28
34034;BME280;63481;52.588;22.472;2023-08-31T12:53:12;99523.95;;;22.32;58.69
34034;BME280;63481;52.588;22.472;2023-08-31T12:58:14;99530.73;;;22.27;59.82
34034;BME280;63481;52.588;22.472;2023-08-31T13:03:16;99532.05;;;22.37;59.29
34034;BME280;63481;52.588;22.472;2023-08-31T13:08:19;99535.16;;;22.73;58.29
34034;BME280;63481;52.588;22.472;2023-08-31T13:13:21;99540.95;;;22.53;59.29
34034;BME280;63481;52.588;22.472;2023-08-31T13:18:23;99537.89;;;22.13;59.49
34034;BME280;63481;52.588;22.472;2023-08-31T13:23:25;99540.17;;;21.64;62.18
34034;BME280;63481;52.588;22.472;2023-08-31T13:28:28;99546.02;;;21.59;61.17
34034;BME280;63481;52.588;22.472;2023-08-31T13:33:30;99540.30;;;22.29;59.96
34034;BME280;63481;52.588;22.472;2023-08-31T13:38:33;99539.90;;;21.78;59.25
34034;BME280;63481;52.588;22.472;2023-08-31T13:43:36;99536.98;;;21.93;61.10
34034;BME280;63481;52.588;22.472;2023-08-31T13:48:38;99541.00;;;22.44;61.38
34034;BME280;63481;52.588;22.472;2023-08-31T13:53:40;99539.09;;;22.70;59.24
34034;BME280;63481;52.588;22.472;2023-08-31T13:58:42;99538.78;;;23.54;54.94
34034;BME280;63481;52.588;22.472;2023-08-31T14:03:45;99543.48;;;23.32;55.66
34034;BME280;63481;52.588;22.472;2023-08-31T14:08:47;99543.56;;;24.16;53.10
34034;BME280;63481;52.588;22.472;2023-08-31T14:13:49;99544.70;;;23.77;51.55
34034;BME280;63481;52.588;22.472;2023-08-31T14:18:52;99543.58;;;23.03;53.97
34034;BME280;63481;52.588;22.472;2023-08-31T14:23:54;99545.96;;;22.93;54.53
34034;BME280;63481;52.588;22.472;2023-08-31T14:28:57;99543.60;;;22.92;53.77
34034;BME280;63481;52.588;22.472;2023-08-31T14:33:59;99552.63;;;22.44;54.99
34034;BME280;63481;52.588;22.472;2023-08-31T14:39:02;99551.67;;;22.58;55.77
34034;BME280;63481;52.588;22.472;2023-08-31T14:44:04;99546.41;;;22.69;54.68
34034;BME280;63481;52.588;22.472;2023-08-31T14:49:06;99544.77;;;22.95;54.44
34034;BME280;63481;52.588;22.472;2023-08-31T14:54:08;99545.83;;;23.61;53.68
34034;BME280;63481;52.588;22.472;2023-08-31T14:59:11;99543.33;;;24.25;51.89
34034;BME280;63481;52.588;22.472;2023-08-31T15:04:14;99544.09;;;24.59;51.44
34034;BME280;63481;52.588;22.472;2023-08-31T15:09:16;99555.99;;;23.78;52.36
34034;BME280;63481;52.588;22.472;2023-08-31T15:14:18;99564.59;;;23.42;53.62
34034;BME280;63481;52.588;22.472;2023-08-31T15:19:21;99570.20;;;22.32;55.99
34034;BME280;63481;52.588;22.472;2023-08-31T15:24:23;99571.19;;;22.16;58.23
34034;BME280;63481;52.588;22.472;2023-08-31T15:29:25;99572.19;;;23.25;55.51
34034;BME280;63481;52.588;22.472;2023-08-31T15:34:29;99567.72;;;23.28;55.15
34034;BME280;63481;52.588;22.472;2023-08-31T15:39:33;99570.27;;;22.83;57.48
34034;BME280;63481;52.588;22.472;2023-08-31T15:44:41;99575.56;;;22.59;58.32
34034;BME280;63481;52.588;22.472;2023-08-31T15:49:44;99577.95;;;22.77;57.91
34034;BME280;63481;52.588;22.472;2023-08-31T15:54:46;99579.96;;;22.71;57.69
34034;BME280;63481;52.588;22.472;2023-08-31T15:59:49;99582.30;;;22.50;59.92
34034;BME280;63481;52.588;22.472;2023-08-31T16:04:54;99583.95;;;22.52;60.55
34034;BME280;63481;52.588;22.472;2023-08-31T16:09:57;99590.75;;;21.83;63.08
34034;BME280;63481;52.588;22.472;2023-08-31T16:14:59;99591.66;;;21.32;64.87
34034;BME280;63481;52.588;22.472;2023-08-31T16:20:02;99594.30;;;21.29;65.34
34034;BME280;63481;52.588;22.472;2023-08-31T16:25:05;99600.08;;;21.01;66.24
34034;BME280;63481;52.588;22.472;2023-08-31T16:30:08;99602.92;;;20.25;69.60
34034;BME280;63481;52.588;22.472;2023-08-31T16:35:12;99629.21;;;19.80;70.85
34034;BME280;63481;52.588;22.472;2023-08-31T16:40:16;99667.65;;;17.81;82.93
34034;BME280;63481;52.588;22.472;2023-08-31T16:45:18;99678.80;;;15.91;97.78
34034;BME280;63481;52.588;22.472;2023-08-31T16:50:31;99676.42;;;15.57;100.00
34034;BME280;63481;52.588;22.472;2023-08-31T16:55:36;99684.46;;;15.43;100.00
34034;BME280;63481;52.588;22.472;2023-08-31T17:00:40;99700.83;;;15.44;100.00
34034;BME280;63481;52.588;22.472;2023-08-31T17:05:42;99683.71;;;15.29;100.00
34034;BME280;63481;52.588;22.472;2023-08-31T17:10:44;99687.38;;;15.22;100.00
34034;BME280;63481;52.588;22.472;2023-08-31T17:15:47;99690.52;;;15.24;100.00
34034;BME280;63481;52.588;22.472;2023-08-31T17:20:50;99683.98;;;15.23;100.00
34034;BME280;63481;52.588;22.472;2023-08-31T17:25:52;99685.31;;;15.24;100.00
34034;BME280;63481;52.588;22.472;2023-08-31T17:30:55;99687.05;;;15.21;100.00
34034;BME280;63481;52.588;22.472;2023-08-31T17:35:57;99694.44;;;15.28;100.00
34034;BME280;63481;52.588;22.472;2023-08-31T17:41:00;99706.68;;;15.15;100.00
34034;BME280;63481;52.588;22.472;2023-08-31T17:46:02;99714.82;;;15.21;100.00
34034;BME280;63481;52.588;22.472;2023-08-31T17:51:05;99722.55;;;15.09;100.00
34034;BME280;63481;52.588;22.472;2023-08-31T17:56:08;99726.94;;;15.07;100.00
34034;BME280;63481;52.588;22.472;2023-08-31T18:01:11;99729.88;;;15.22;100.00
34034;BME280;63481;52.588;22.472;2023-08-31T18:06:13;99736.89;;;15.36;100.00
34034;BME280;63481;52.588;22.472;2023-08-31T18:11:15;99741.10;;;15.45;100.00
34034;BME280;63481;52.588;22.472;2023-08-31T18:16:19;99742.80;;;15.45;100.00
34034;BME280;63481;52.588;22.472;2023-08-31T18:21:23;99747.11;;;15.48;100.00
34034;BME280;63481;52.588;22.472;2023-08-31T18:26:25;99749.42;;;15.41;100.00
34034;BME280;63481;52.588;22.472;2023-08-31T18:31:28;99748.55;;;15.33;100.00
34034;BME280;63481;52.588;22.472;2023-08-31T18:36:31;99747.13;;;15.33;100.00
34034;BME280;63481;52.588;22.472;2023-08-31T18:41:36;99749.75;;;15.29;100.00
34034;BME280;63481;52.588;22.472;2023-08-31T18:46:40;99764.53;;;15.03;100.00
34034;BME280;63481;52.588;22.472;2023-08-31T18:51:42;99775.55;;;14.85;100.00
34034;BME280;63481;52.588;22.472;2023-08-31T18:56:46;99782.42;;;14.85;100.00
34034;BME280;63481;52.588;22.472;2023-08-31T19:01:48;99785.60;;;14.93;100.00
34034;BME280;63481;52.588;22.472;2023-08-31T19:06:50;99792.05;;;14.89;100.00
34034;BME280;63481;52.588;22.472;2023-08-31T19:11:54;99794.48;;;14.95;100.00
34034;BME280;63481;52.588;22.472;2023-08-31T19:16:56;99805.89;;;14.92;100.00
34034;BME280;63481;52.588;22.472;2023-08-31T19:21:58;99809.17;;;14.96;100.00
34034;BME280;63481;52.588;22.472;2023-08-31T19:27:03;99809.22;;;14.92;100.00
34034;BME280;63481;52.588;22.472;2023-08-31T19:32:05;99812.61;;;14.89;100.00
34034;BME280;63481;52.588;22.472;2023-08-31T19:37:08;99816.20;;;14.85;100.00
34034;BME280;63481;52.588;22.472;2023-08-31T19:42:10;99820.73;;;14.74;100.00
34034;BME280;63481;52.588;22.472;2023-08-31T19:47:12;99825.69;;;14.62;100.00
34034;BME280;63481;52.588;22.472;2023-08-31T19:52:14;99826.38;;;14.49;100.00
34034;BME280;63481;52.588;22.472;2023-08-31T19:57:17;99826.31;;;14.39;100.00
34034;BME280;63481;52.588;22.472;2023-08-31T20:02:19;99830.73;;;14.35;100.00
34034;BME280;63481;52.588;22.472;2023-08-31T20:07:21;99833.15;;;14.24;100.00
34034;BME280;63481;52.588;22.472;2023-08-31T20:12:24;99836.52;;;14.10;100.00
34034;BME280;63481;52.588;22.472;2023-08-31T20:17:27;99840.74;;;14.01;100.00
34034;BME280;63481;52.588;22.472;2023-08-31T20:22:29;99847.45;;;13.93;100.00
34034;BME280;63481;52.588;22.472;2023-08-31T20:27:33;99851.52;;;13.88;100.00
34034;BME280;63481;52.588;22.472;2023-08-31T20:37:56;99859.73;;;13.81;100.00
34034;BME280;63481;52.588;22.472;2023-08-31T20:42:57;99862.47;;;13.79;100.00
34034;BME280;63481;52.588;22.472;2023-08-31T20:48:04;99867.66;;;13.78;100.00
34034;BME280;63481;52.588;22.472;2023-08-31T20:53:06;99868.05;;;13.76;100.00
34034;BME280;63481;52.588;22.472;2023-08-31T20:58:08;99872.84;;;13.69;100.00
34034;BME280;63481;52.588;22.472;2023-08-31T21:07:12;99877.88;;;13.67;100.00
34034;BME280;63481;52.588;22.472;2023-08-31T21:12:14;99888.10;;;13.52;100.00
34034;BME280;63481;52.588;22.472;2023-08-31T21:17:16;99894.63;;;13.49;100.00
34034;BME280;63481;52.588;22.472;2023-08-31T21:22:18;99903.73;;;13.37;100.00
34034;BME280;63481;52.588;22.472;2023-08-31T21:27:20;99903.52;;;13.30;100.00
34034;BME280;63481;52.588;22.472;2023-08-31T21:32:22;99912.38;;;13.31;100.00
34034;BME280;63481;52.588;22.472;2023-08-31T21:37:24;99918.15;;;13.24;100.00
34034;BME280;63481;52.588;22.472;2023-08-31T21:42:26;99926.48;;;13.16;100.00
34034;BME280;63481;52.588;22.472;2023-08-31T21:47:28;99932.20;;;13.07;100.00
34034;BME280;63481;52.588;22.472;2023-08-31T21:52:30;99933.41;;;13.14;100.00
34034;BME280;63481;52.588;22.472;2023-08-31T21:57:32;99933.98;;;12.98;100.00
34034;BME280;63481;52.588;22.472;2023-08-31T22:02:34;99937.38;;;12.83;100.00
34034;BME280;63481;52.588;22.472;2023-08-31T22:07:37;99946.14;;;12.74;100.00
34034;BME280;63481;52.588;22.472;2023-08-31T22:12:41;99950.17;;;12.71;100.00
34034;BME280;63481;52.588;22.472;2023-08-31T22:17:44;99954.85;;;12.67;100.00
34034;BME280;63481;52.588;22.472;2023-08-31T22:22:47;99961.60;;;12.60;100.00
34034;BME280;63481;52.588;22.472;2023-08-31T22:27:52;99966.81;;;12.49;100.00
34034;BME280;63481;52.588;22.472;2023-08-31T22:32:54;99966.40;;;12.46;100.00
34034;BME280;63481;52.588;22.472;2023-08-31T22:37:56;99966.59;;;12.40;100.00
34034;BME280;63481;52.588;22.472;2023-08-31T22:42:58;99966.40;;;12.44;100.00
34034;BME280;63481;52.588;22.472;2023-08-31T22:48:00;99964.58;;;12.40;100.00
34034;BME280;63481;52.588;22.472;2023-08-31T22:53:02;99964.55;;;12.45;100.00
34034;BME280;63481;52.588;22.472;2023-08-31T22:58:05;99966.41;;;12.48;100.00
34034;BME280;63481;52.588;22.472;2023-08-31T23:03:07;99966.13;;;12.51;100.00
34034;BME280;63481;52.588;22.472;2023-08-31T23:08:12;99964.51;;;12.49;100.00
34034;BME280;63481;52.588;22.472;2023-08-31T23:13:14;99966.61;;;12.46;100.00
34034;BME280;63481;52.588;22.472;2023-08-31T23:18:16;99973.15;;;12.46;100.00
34034;BME280;63481;52.588;22.472;2023-08-31T23:23:18;99978.10;;;12.34;100.00
34034;BME280;63481;52.588;22.472;2023-08-31T23:28:19;99976.77;;;12.37;100.00
34034;BME280;63481;52.588;22.472;2023-08-31T23:33:22;99979.23;;;12.35;100.00
34034;BME280;63481;52.588;22.472;2023-08-31T23:38:24;99980.89;;;12.36;100.00
34034;BME280;63481;52.588;22.472;2023-08-31T23:43:27;99983.40;;;12.48;100.00
34034;BME280;63481;52.588;22.472;2023-08-31T23:48:29;99989.70;;;12.41;100.00
34034;BME280;63481;52.588;22.472;2023-08-31T23:53:31;99992.44;;;12.25;100.00
34034;BME280;63481;52.588;22.472;2023-08-31T23:58:35;99992.05;;;12.24;100.00
